Hovedside
METAR-TAF:

METAR-TAF

Lufthavner :

Rørvik, Norge

Rørvik lufthavn

breddegrad: 64-50N, lengdegrad: 011-09E, høyde over havet: 4 m

Gjeldene værobservasjon

Denne rapporten ble laget for 21 minutter siden, klokken 07:20 UTC
Vind 20 kt fra Øst-sørøst med vindkast opp mot 34 kt
Temperatur 5°C
Luftfuktighet 56%
Trykk 1015 hPa
Sikt 10 km eller mer
ingen skyer under 1500 m og ingen bygeskyer

METAR: ENRM 240720Z 12020G34KT CAVOK 05/M03 Q1015

Tid: 09:41 (07:41 UTC)

Varsel

Denne rapporten ble laget for 2 timer og 41 minutter siden, klokken 05:00 UTC
Varsel gyldig fra 24. klokken 06 UTC til 24. klokken 15 UTC
Vind 22 kt fra Sørøst med vindkast opp mot 35 kt
Sikt 10 km eller mer
Få skyer i en høyde av 3000 ft
Brutte skyer i en høyde av 6000 ft

TAF: ENRM 240500Z 2406/2415 13022G35KT 9999 FEW030 BKN060

Værobservasjoner og værvarsel for over 4000 flyplasser (METAR- og TAF-rapporter).

Tilgjengelige stasjoner er representert av de røde og gule prikkene på kartet.

Hold musepekeren over prikken for å se navnet på stasjonen.

Klikk så for å se værobservasjoner og -varsler.

For å forandre kartet kan du klikke på den grønne knappen med svart kryss for å zoome inn, på den grønne knappen med strek for å zoome ut, eller på de grønne pilene for å se tilstøtende kart.


METAR-TAF: